Time;durP1;ratioP1;P1;durP2;ratioP2;P2;SDS_P1;SDS_P2;PMS_P1;PMS_P2;Temp;Humidity;BMP_temperature;BMP_pressure;BME280_temperature;BME280_humidity;BME280_pressure;Samples;Min_cycle;Max_cycle;Signal;HPM_P1;HPM_P2
2023/01/12 00:03:14;;;;;;;2.00;1.80;;;15.30;55.00;;;;;;222668;1269;22760;-48
2023/01/12 00:08:22;;;;;;;2.70;2.40;;;15.30;55.10;;;;;;222397;1269;22601;-47
2023/01/12 00:13:30;;;;;;;2.70;1.80;;;15.30;55.30;;;;;;222354;1256;24196;-47
2023/01/12 00:18:38;;;;;;;2.10;1.90;;;15.30;55.20;;;;;;222847;1269;22594;-46
2023/01/12 00:23:45;;;;;;;2.20;1.60;;;15.30;54.60;;;;;;222565;1269;22586;-45
2023/01/12 00:28:53;;;;;;;2.00;1.80;;;15.20;55.10;;;;;;222554;1269;22712;-48
2023/01/12 00:33:57;;;;;;;1.90;1.80;;;15.30;55.50;;;;;;222565;1256;24036;-48
2023/01/12 00:39:05;;;;;;;2.00;1.80;;;15.20;55.20;;;;;;222309;1266;22843;-47
2023/01/12 00:49:36;;;;;;;2.80;2.60;;;15.10;55.60;;;;;;222561;1269;22520;-49
2023/01/12 00:54:40;;;;;;;1.80;1.60;;;15.10;55.70;;;;;;222445;1269;25488;-46
2023/01/12 00:59:45;;;;;;;1.80;1.70;;;15.10;55.80;;;;;;222433;1269;22532;-46
2023/01/12 01:04:53;;;;;;;1.70;1.60;;;15.10;55.60;;;;;;222661;1269;23904;-45
2023/01/12 01:10:00;;;;;;;2.30;1.90;;;15.20;55.40;;;;;;222437;1269;25416;-45
2023/01/12 01:15:06;;;;;;;1.80;1.70;;;15.20;55.50;;;;;;222485;1268;23654;-45
2023/01/12 01:20:12;;;;;;;1.90;1.70;;;15.20;55.40;;;;;;222402;1269;22753;-47
2023/01/12 01:25:19;;;;;;;2.40;1.80;;;15.20;55.30;;;;;;222586;1269;22544;-46
2023/01/12 01:30:24;;;;;;;1.90;1.80;;;15.30;55.10;;;;;;222283;1269;22536;-47
2023/01/12 01:35:29;;;;;;;2.00;1.80;;;15.30;55.20;;;;;;222713;1269;22540;-48
2023/01/12 01:40:33;;;;;;;1.90;1.70;;;15.30;55.60;;;;;;222861;1264;22638;-47
2023/01/12 01:45:38;;;;;;;1.90;1.80;;;15.20;55.30;;;;;;222341;1269;22780;-45
2023/01/12 01:50:50;;;;;;;1.80;1.70;;;15.20;55.20;;;;;;222594;1269;22527;-44
2023/01/12 01:56:00;;;;;;;2.00;1.60;;;15.10;55.50;;;;;;222511;1269;22655;-45
2023/01/12 02:01:06;;;;;;;2.00;1.80;;;15.20;55.50;;;;;;222641;1264;24404;-47
2023/01/12 02:06:11;;;;;;;1.80;1.40;;;15.20;55.40;;;;;;222810;1267;24207;-45
2023/01/12 02:16:50;;;;;;;1.80;1.50;;;15.10;55.60;;;;;;222791;1269;22553;-48
2023/01/12 02:22:34;;;;;;;2.10;1.70;;;15.10;55.60;;;;;;222840;1269;22544;-47
2023/01/12 02:27:59;;;;;;;1.80;1.70;;;15.10;55.60;;;;;;222760;1264;22522;-46
2023/01/12 02:33:13;;;;;;;1.80;1.60;;;15.10;55.30;;;;;;222459;1264;22538;-47
2023/01/12 02:38:45;;;;;;;2.10;1.90;;;15.20;55.40;;;;;;222540;1269;22635;-46
2023/01/12 02:43:53;;;;;;;1.40;1.30;;;15.20;55.70;;;;;;222605;1269;22524;-44
2023/01/12 02:49:07;;;;;;;1.60;1.50;;;15.10;55.30;;;;;;222571;1269;24491;-45
2023/01/12 02:54:14;;;;;;;1.80;1.70;;;15.20;55.30;;;;;;222528;1269;22544;-46
2023/01/12 02:59:29;;;;;;;1.80;1.70;;;15.20;55.70;;;;;;222444;1257;22531;-46
2023/01/12 03:04:33;;;;;;;1.20;1.10;;;15.20;55.30;;;;;;222486;1269;22681;-46
2023/01/12 03:09:49;;;;;;;1.50;1.40;;;15.20;55.40;;;;;;222434;1266;25394;-47
2023/01/12 03:14:58;;;;;;;1.70;1.60;;;15.20;55.60;;;;;;222321;1253;22517;-44
2023/01/12 03:20:10;;;;;;;1.50;1.40;;;15.10;55.50;;;;;;222765;1269;22544;-44
2023/01/12 03:25:17;;;;;;;1.80;1.60;;;15.10;55.10;;;;;;222748;1262;22528;-45
2023/01/12 03:30:36;;;;;;;2.40;1.80;;;15.10;55.80;;;;;;222794;1269;22731;-49
2023/01/12 03:35:57;;;;;;;1.90;1.50;;;15.10;55.40;;;;;;222615;1266;25398;-46
2023/01/12 03:41:12;;;;;;;1.70;1.60;;;15.10;55.60;;;;;;222751;1263;22529;-45
2023/01/12 03:46:32;;;;;;;1.30;1.20;;;15.10;55.40;;;;;;222687;1269;22538;-46
2023/01/12 03:51:40;;;;;;;1.70;1.60;;;15.10;55.70;;;;;;222373;1269;24680;-46
2023/01/12 03:56:46;;;;;;;1.40;1.30;;;15.20;55.30;;;;;;222504;1269;22650;-46
2023/01/12 04:01:50;;;;;;;1.40;1.30;;;15.10;55.80;;;;;;222512;1269;25395;-44
2023/01/12 04:06:59;;;;;;;1.50;1.40;;;15.10;55.40;;;;;;222858;1267;25601;-46
2023/01/12 04:12:11;;;;;;;2.00;1.50;;;15.20;55.30;;;;;;222668;1269;24319;-45
2023/01/12 04:17:17;;;;;;;1.90;1.70;;;15.10;55.40;;;;;;222757;1269;24229;-47
2023/01/12 04:22:43;;;;;;;1.50;1.40;;;15.10;55.40;;;;;;222725;1254;22672;-47
2023/01/12 04:27:55;;;;;;;2.40;1.20;;;15.10;55.40;;;;;;222453;1269;26612;-45
2023/01/12 04:33:04;;;;;;;1.40;1.30;;;15.10;55.50;;;;;;222606;1269;25303;-46
2023/01/12 04:38:09;;;;;;;1.40;1.30;;;15.00;56.00;;;;;;222857;1265;22777;-49
2023/01/12 04:43:16;;;;;;;1.50;1.40;;;15.10;55.50;;;;;;222625;1269;22551;-47
2023/01/12 04:48:20;;;;;;;1.60;1.50;;;15.00;55.60;;;;;;222526;1265;22536;-45
2023/01/12 04:53:28;;;;;;;1.90;1.50;;;15.00;55.90;;;;;;222423;1269;24970;-45
2023/01/12 04:58:34;;;;;;;2.20;1.50;;;15.10;55.30;;;;;;222526;1269;25462;-46
2023/01/12 05:03:38;;;;;;;1.60;1.50;;;15.10;55.40;;;;;;222334;1262;22541;-45
2023/01/12 05:14:19;;;;;;;;;;;;;;;;;;;;;
2023/01/12 05:19:26;;;;;;;1.30;1.20;;;15.00;55.40;;;;;;222200;1269;25216;-47
2023/01/12 05:24:33;;;;;;;1.40;1.30;;;15.00;55.60;;;;;;222617;1268;22649;-46
2023/01/12 05:29:38;;;;;;;1.60;1.50;;;15.10;55.40;;;;;;222269;1269;23075;-45
2023/01/12 05:34:46;;;;;;;5.30;1.70;;;15.00;55.40;;;;;;222648;1265;22605;-46
2023/01/12 05:39:50;;;;;;;1.50;1.40;;;15.00;55.70;;;;;;222753;1264;25247;-46
2023/01/12 05:45:06;;;;;;;1.70;1.60;;;15.00;55.60;;;;;;222471;1269;22534;-45
2023/01/12 05:50:11;;;;;;;2.00;1.70;;;15.00;55.40;;;;;;222446;1267;22651;-46
2023/01/12 05:55:16;;;;;;;1.70;1.60;;;15.00;55.30;;;;;;222777;1269;22524;-45
2023/01/12 06:00:21;;;;;;;1.70;1.60;;;15.00;55.40;;;;;;222722;1260;24086;-46
2023/01/12 06:05:25;;;;;;;1.00;1.00;;;15.00;55.30;;;;;;222569;1269;22659;-47
2023/01/12 06:10:39;;;;;;;1.10;1.00;;;15.00;55.50;;;;;;222609;1263;24322;-44
2023/01/12 06:15:43;;;;;;;1.60;1.50;;;14.90;55.50;;;;;;222878;1269;24106;-44
2023/01/12 06:20:47;;;;;;;2.30;1.30;;;15.00;55.50;;;;;;222916;1265;22524;-44
2023/01/12 06:25:55;;;;;;;1.60;1.20;;;15.00;55.30;;;;;;222691;1269;22609;-45
2023/01/12 06:31:04;;;;;;;1.50;1.20;;;14.90;55.50;;;;;;222603;1268;22531;-46
2023/01/12 06:36:18;;;;;;;1.10;1.00;;;14.90;55.80;;;;;;222331;1269;22602;-46
2023/01/12 06:46:57;;;;;;;1.90;1.20;;;14.90;55.40;;;;;;222536;1269;25676;-47
2023/01/12 06:52:11;;;;;;;1.90;1.60;;;15.00;55.40;;;;;;222583;1265;22559;-45
2023/01/12 06:57:18;;;;;;;2.30;1.20;;;15.00;55.30;;;;;;222351;1269;22556;-47
2023/01/12 07:02:26;;;;;;;1.70;1.40;;;14.90;55.30;;;;;;222525;1264;23937;-46
2023/01/12 07:07:33;;;;;;;2.40;1.60;;;14.90;55.30;;;;;;222560;1262;24199;-46
2023/01/12 07:12:40;;;;;;;1.40;1.30;;;15.00;55.20;;;;;;222572;1269;24179;-46
2023/01/12 07:17:53;;;;;;;1.40;1.30;;;15.00;55.10;;;;;;222616;1269;24420;-46
2023/01/12 07:22:58;;;;;;;1.50;1.40;;;14.90;55.10;;;;;;222337;1269;22530;-45
2023/01/12 07:28:03;;;;;;;1.60;1.50;;;14.90;55.20;;;;;;222792;1269;24312;-45
2023/01/12 07:33:09;;;;;;;1.60;1.50;;;15.00;55.20;;;;;;222913;1268;24257;-45
2023/01/12 07:38:16;;;;;;;2.00;1.60;;;14.90;55.40;;;;;;222697;1268;25247;-44
2023/01/12 07:43:20;;;;;;;1.50;1.40;;;14.90;55.40;;;;;;222219;1269;22580;-44
2023/01/12 07:48:26;;;;;;;1.40;1.30;;;14.90;55.40;;;;;;222654;1269;22660;-44
2023/01/12 07:53:30;;;;;;;1.40;1.30;;;15.00;55.20;;;;;;222909;1268;24296;-46
2023/01/12 07:58:36;;;;;;;1.50;1.40;;;15.00;55.00;;;;;;222476;1269;22527;-45
2023/01/12 08:03:50;;;;;;;2.40;1.60;;;15.10;54.80;;;;;;222543;1259;24314;-46
2023/01/12 08:09:15;;;;;;;1.60;1.50;;;15.10;54.90;;;;;;222361;1267;22640;-46
2023/01/12 08:14:36;;;;;;;1.50;1.40;;;15.20;54.70;;;;;;222693;1262;22629;-44
2023/01/12 08:20:04;;;;;;;;;;;;;;;;;;;;;
2023/01/12 08:25:15;;;;;;;1.70;1.60;;;15.50;54.50;;;;;;222671;1269;25429;-44
2023/01/12 08:30:25;;;;;;;2.00;1.50;;;15.60;53.80;;;;;;222725;1269;22530;-48
2023/01/12 08:35:33;;;;;;;1.60;1.50;;;15.70;53.80;;;;;;222588;1269;22651;-48
2023/01/12 08:46:06;;;;;;;1.10;1.00;;;15.70;53.70;;;;;;222652;1262;22619;-47
2023/01/12 08:51:13;;;;;;;1.40;1.30;;;15.70;53.90;;;;;;222531;1269;22524;-45
2023/01/12 08:56:20;;;;;;;1.90;1.60;;;15.70;54.00;;;;;;222363;1262;23937;-47
2023/01/12 09:01:34;;;;;;;1.50;1.40;;;15.60;54.40;;;;;;222110;1266;25198;-47
2023/01/12 09:07:00;;;;;;;1.30;1.20;;;15.50;54.50;;;;;;222613;1265;25250;-46
2023/01/12 09:12:05;;;;;;;1.40;1.30;;;15.50;54.80;;;;;;222455;1269;22934;-46
2023/01/12 09:17:09;;;;;;;1.50;1.40;;;15.50;54.80;;;;;;222535;1265;25411;-47
2023/01/12 09:22:13;;;;;;;1.50;1.20;;;15.60;54.60;;;;;;222215;1269;22551;-46
2023/01/12 09:27:18;;;;;;;1.50;1.40;;;15.40;55.30;;;;;;222512;1269;22531;-47
2023/01/12 09:32:22;;;;;;;1.40;1.30;;;15.30;55.70;;;;;;222741;1265;22612;-50
2023/01/12 09:37:41;;;;;;;1.50;1.30;;;15.40;55.90;;;;;;222463;1269;22523;-47
2023/01/12 09:48:17;;;;;;;1.20;1.10;;;15.50;55.30;;;;;;222370;1265;24223;-46
2023/01/12 09:53:24;;;;;;;1.30;1.10;;;15.40;55.60;;;;;;222794;1269;22631;-47
2023/01/12 09:58:53;;;;;;;1.40;1.30;;;15.60;55.50;;;;;;222658;1269;22650;-47
2023/01/12 10:04:00;;;;;;;1.40;1.30;;;15.60;55.30;;;;;;222763;1262;22554;-45
2023/01/12 10:09:16;;;;;;;1.40;1.30;;;15.60;55.60;;;;;;222799;1265;22725;-46
2023/01/12 10:14:39;;;;;;;1.50;1.40;;;15.60;55.00;;;;;;222671;1268;24328;-47
2023/01/12 10:19:57;;;;;;;1.50;1.40;;;15.90;54.30;;;;;;222300;1269;22519;-46
2023/01/12 10:25:42;;;;;;;1.40;1.20;;;15.90;54.20;;;;;;222654;1262;22643;-52
2023/01/12 10:30:50;;;;;;;1.40;1.30;;;15.90;53.90;;;;;;221266;1276;22543;-46
2023/01/12 10:36:02;;;;;;;1.50;1.40;;;15.80;54.20;;;;;;222013;1262;22892;-48
2023/01/12 10:41:22;;;;;;;1.40;1.30;;;15.80;54.40;;;;;;222655;1269;23873;-49
2023/01/12 10:46:31;;;;;;;1.60;1.40;;;15.80;54.40;;;;;;222525;1262;25652;-50
2023/01/12 10:51:49;;;;;;;1.20;1.10;;;15.60;54.80;;;;;;222490;1269;25293;-49
2023/01/12 10:57:15;;;;;;;1.30;1.20;;;15.50;55.40;;;;;;222466;1269;22529;-48
2023/01/12 11:02:25;;;;;;;1.50;1.20;;;15.60;55.40;;;;;;222498;1269;22650;-48
2023/01/12 11:07:38;;;;;;;1.30;1.20;;;15.70;55.30;;;;;;222472;1269;26801;-48
2023/01/12 11:12:54;;;;;;;1.20;1.10;;;15.80;55.20;;;;;;222139;1267;26142;-51
2023/01/12 11:18:46;;;;;;;1.30;1.20;;;15.90;55.10;;;;;;222405;1269;22646;-49
2023/01/12 11:24:02;;;;;;;1.40;1.20;;;16.00;54.90;;;;;;220921;1272;22770;-50
2023/01/12 11:29:37;;;;;;;1.40;1.30;;;16.10;54.60;;;;;;221162;1273;26673;-50
2023/01/12 11:35:07;;;;;;;1.30;1.20;;;16.10;54.70;;;;;;221115;1271;24224;-48
2023/01/12 11:40:31;;;;;;;2.10;1.60;;;16.30;54.30;;;;;;221218;1276;22534;-49
2023/01/12 11:45:51;;;;;;;1.30;1.20;;;16.40;54.20;;;;;;220885;1276;24450;-46
2023/01/12 11:50:57;;;;;;;1.50;1.40;;;16.40;54.20;;;;;;221069;1276;23894;-49
2023/01/12 11:56:16;;;;;;;1.20;1.10;;;16.50;54.20;;;;;;221765;1262;25365;-46
2023/01/12 12:01:35;;;;;;;1.20;1.00;;;16.50;54.30;;;;;;222349;1263;22636;-49
2023/01/12 12:06:59;;;;;;;1.40;0.90;;;16.60;54.30;;;;;;222494;1269;25603;-47
2023/01/12 12:12:16;;;;;;;1.70;1.20;;;16.60;54.00;;;;;;222679;1269;25447;-48
2023/01/12 12:17:46;;;;;;;1.10;1.00;;;16.70;54.00;;;;;;222745;1260;24971;-45
2023/01/12 12:22:53;;;;;;;1.30;1.20;;;16.80;53.90;;;;;;222637;1269;22597;-46
2023/01/12 12:28:29;;;;;;;1.50;1.40;;;16.70;54.30;;;;;;222399;1269;22542;-46
2023/01/12 12:33:51;;;;;;;1.70;1.50;;;16.80;54.20;;;;;;222708;1269;22749;-45
2023/01/12 12:39:25;;;;;;;1.20;1.10;;;16.90;53.60;;;;;;222416;1269;22580;-47
2023/01/12 12:50:39;;;;;;;1.30;1.10;;;17.00;53.40;;;;;;222265;1245;24186;-47
2023/01/12 12:55:44;;;;;;;1.70;1.10;;;16.90;53.50;;;;;;222208;1269;24146;-50
2023/01/12 13:00:50;;;;;;;1.30;1.20;;;17.00;53.60;;;;;;222643;1269;22936;-48
2023/01/12 13:06:26;;;;;;;1.80;1.00;;;17.00;53.50;;;;;;222142;1263;22538;-46
2023/01/12 13:12:06;;;;;;;1.30;1.10;;;17.00;53.50;;;;;;222459;1269;22527;-47
2023/01/12 13:17:30;;;;;;;1.30;1.20;;;17.00;53.60;;;;;;221099;1274;23759;-46
2023/01/12 13:22:45;;;;;;;1.90;1.30;;;17.00;53.50;;;;;;220877;1276;22836;-47
2023/01/12 13:27:58;;;;;;;1.20;1.10;;;17.00;53.40;;;;;;221085;1273;22754;-46
2023/01/12 13:33:28;;;;;;;1.60;1.50;;;17.10;53.50;;;;;;221007;1276;22761;-48
2023/01/12 13:38:32;;;;;;;1.30;1.10;;;17.00;53.30;;;;;;221172;1276;24270;-47
2023/01/12 13:43:44;;;;;;;1.60;1.30;;;17.00;53.90;;;;;;221086;1272;22550;-47
2023/01/12 13:48:50;;;;;;;1.20;1.10;;;16.80;53.70;;;;;;221550;1269;23121;-47
2023/01/12 13:54:05;;;;;;;3.20;1.10;;;16.70;53.90;;;;;;222654;1269;22619;-46
2023/01/12 13:59:18;;;;;;;1.20;1.10;;;16.60;53.90;;;;;;222593;1269;25329;-46
2023/01/12 14:05:04;;;;;;;0.70;0.60;;;16.70;53.90;;;;;;222566;1257;22609;-49
2023/01/12 14:10:17;;;;;;;1.10;1.00;;;16.70;54.10;;;;;;220171;1269;3054651;-48
2023/01/12 14:21:03;;;;;;;1.10;1.00;;;16.60;54.00;;;;;;222397;1267;22685;-46
2023/01/12 14:26:15;;;;;;;1.30;1.20;;;16.50;54.20;;;;;;222308;1268;22791;-46
2023/01/12 14:31:38;;;;;;;1.30;1.20;;;16.40;53.80;;;;;;222743;1269;22622;-46
2023/01/12 14:36:45;;;;;;;1.10;0.90;;;16.40;54.40;;;;;;222717;1269;24436;-46
2023/01/12 14:47:29;;;;;;;2.60;1.30;;;16.30;54.30;;;;;;222510;1257;24257;-45
2023/01/12 14:52:38;;;;;;;2.30;1.70;;;16.40;54.00;;;;;;222531;1269;25356;-47
2023/01/12 14:57:46;;;;;;;1.30;1.10;;;16.50;54.00;;;;;;222210;1269;22548;-47
2023/01/12 15:03:15;;;;;;;1.80;1.40;;;16.50;53.90;;;;;;222676;1269;25384;-47
2023/01/12 15:08:25;;;;;;;1.30;1.20;;;16.40;54.20;;;;;;222355;1269;22776;-47
2023/01/12 15:13:32;;;;;;;1.70;1.60;;;16.40;54.00;;;;;;222372;1265;22639;-48
2023/01/12 15:29:25;;;;;;;1.50;1.40;;;16.40;53.90;;;;;;222220;1269;25477;-47
2023/01/12 15:34:29;;;;;;;1.60;1.40;;;16.40;54.10;;;;;;222329;1260;22517;-46
2023/01/12 15:39:34;;;;;;;1.40;1.30;;;16.40;54.40;;;;;;222476;1269;24196;-47
2023/01/12 15:44:38;;;;;;;1.80;1.50;;;16.30;53.90;;;;;;222879;1269;22651;-46
2023/01/12 15:49:58;;;;;;;;;;;;;;;;;;;;;
2023/01/12 15:55:04;;;;;;;2.60;2.40;;;16.30;53.90;;;;;;222697;1269;24200;-47
2023/01/12 16:00:14;;;;;;;2.70;2.30;;;16.30;54.00;;;;;;222756;1265;24375;-46
2023/01/12 16:05:21;;;;;;;2.40;1.80;;;16.30;54.00;;;;;;222572;1262;22517;-46
2023/01/12 16:10:29;;;;;;;2.90;2.20;;;16.30;54.00;;;;;;222573;1269;22523;-46
2023/01/12 16:15:33;;;;;;;2.60;1.80;;;16.30;54.10;;;;;;222503;1265;22639;-45
2023/01/12 16:20:38;;;;;;;2.10;1.90;;;16.30;54.30;;;;;;222619;1269;23273;-46
2023/01/12 16:25:54;;;;;;;2.60;2.40;;;16.30;53.90;;;;;;222256;1269;22649;-47
2023/01/12 16:31:05;;;;;;;2.20;1.70;;;16.30;53.90;;;;;;222575;1265;23125;-45
2023/01/12 16:36:12;;;;;;;2.00;1.80;;;16.20;54.00;;;;;;222441;1269;22524;-45
2023/01/12 16:41:18;;;;;;;1.70;1.50;;;16.20;53.80;;;;;;222425;1246;24251;-47
2023/01/12 16:46:22;;;;;;;2.00;1.60;;;16.30;53.90;;;;;;222646;1269;24006;-47
2023/01/12 16:51:27;;;;;;;2.20;2.00;;;16.20;53.80;;;;;;222611;1269;22544;-48
2023/01/12 16:56:31;;;;;;;1.60;1.50;;;16.20;54.00;;;;;;222538;1269;22628;-45
2023/01/12 17:01:57;;;;;;;2.20;2.00;;;16.20;54.00;;;;;;222479;1265;23144;-47
2023/01/12 17:07:21;;;;;;;1.90;1.70;;;16.20;54.00;;;;;;222563;1265;23353;-46
2023/01/12 17:12:26;;;;;;;2.40;2.20;;;16.20;54.30;;;;;;222850;1265;22586;-48
2023/01/12 17:17:36;;;;;;;1.40;1.30;;;16.20;53.90;;;;;;222776;1265;25293;-46
2023/01/12 17:22:40;;;;;;;1.60;1.30;;;16.20;53.90;;;;;;222285;1265;24378;-48
2023/01/12 17:27:53;;;;;;;1.80;1.70;;;16.20;53.90;;;;;;222548;1269;22677;-46
2023/01/12 17:33:18;;;;;;;2.30;1.80;;;16.10;54.00;;;;;;222547;1269;22652;-49
2023/01/12 17:38:23;;;;;;;2.20;2.00;;;16.10;54.00;;;;;;222677;1269;22632;-48
2023/01/12 17:43:27;;;;;;;2.60;1.70;;;16.10;54.30;;;;;;222553;1269;24398;-47
2023/01/12 17:48:32;;;;;;;2.30;1.90;;;16.10;53.90;;;;;;222398;1264;22667;-47
2023/01/12 17:53:36;;;;;;;2.00;1.80;;;16.10;54.00;;;;;;222296;1269;22524;-50
2023/01/12 17:58:42;;;;;;;1.80;1.60;;;16.10;54.00;;;;;;222760;1263;23012;-50
2023/01/12 18:03:47;;;;;;;2.30;2.00;;;16.10;53.60;;;;;;222301;1265;22534;-45
2023/01/12 18:08:51;;;;;;;2.70;2.00;;;16.10;54.00;;;;;;222641;1269;25611;-47
2023/01/12 18:13:58;;;;;;;2.40;2.00;;;16.10;54.10;;;;;;222330;1265;23026;-43
2023/01/12 18:19:05;;;;;;;1.80;1.70;;;16.10;54.30;;;;;;222764;1269;22816;-48
2023/01/12 18:24:09;;;;;;;2.50;1.90;;;16.10;53.90;;;;;;222526;1269;22625;-45
2023/01/12 18:29:14;;;;;;;2.00;1.80;;;16.10;54.10;;;;;;222542;1269;22738;-48
2023/01/12 18:34:21;;;;;;;2.70;1.90;;;16.20;54.00;;;;;;222571;1269;25416;-48
2023/01/12 18:39:26;;;;;;;3.00;2.30;;;16.10;54.00;;;;;;222487;1269;22698;-48
2023/01/12 18:44:32;;;;;;;1.90;1.80;;;16.10;54.40;;;;;;222769;1269;22565;-47
2023/01/12 18:49:40;;;;;;;2.10;1.80;;;16.10;54.40;;;;;;222608;1263;25594;-45
2023/01/12 18:54:50;;;;;;;1.70;1.60;;;16.10;54.00;;;;;;222698;1269;23109;-45
2023/01/12 19:00:16;;;;;;;2.40;1.90;;;16.10;54.60;;;;;;222466;1256;22972;-47
2023/01/12 19:10:37;;;;;;;1.50;1.40;;;16.00;54.10;;;;;;222741;1269;22538;-47
2023/01/12 19:31:58;;;;;;;1.80;1.60;;;16.00;54.20;;;;;;222704;1269;22559;-48
2023/01/12 19:37:04;;;;;;;1.80;1.70;;;15.90;54.30;;;;;;222620;1269;22536;-47
2023/01/12 19:47:33;;;;;;;1.70;1.50;;;16.00;54.40;;;;;;222581;1248;24251;-48
2023/01/12 19:52:41;;;;;;;1.70;1.60;;;16.00;54.40;;;;;;222479;1269;22562;-49
2023/01/12 19:57:52;;;;;;;2.40;1.50;;;16.00;54.60;;;;;;222408;1269;26667;-47
2023/01/12 20:02:59;;;;;;;1.60;1.50;;;16.00;54.30;;;;;;222566;1269;25360;-47
2023/01/12 20:08:06;;;;;;;2.00;1.70;;;16.00;54.40;;;;;;222806;1269;22530;-48
2023/01/12 20:13:14;;;;;;;1.60;1.50;;;15.90;54.60;;;;;;222615;1269;22546;-47
2023/01/12 20:18:20;;;;;;;1.40;1.30;;;15.90;54.50;;;;;;222481;1269;25336;-46
2023/01/12 20:23:26;;;;;;;1.70;1.30;;;15.90;54.20;;;;;;222686;1265;23128;-47
2023/01/12 20:28:31;;;;;;;2.00;1.50;;;16.00;54.30;;;;;;222854;1269;24201;-50
2023/01/12 20:33:37;;;;;;;1.80;1.40;;;15.90;54.20;;;;;;222505;1269;24100;-46
2023/01/12 20:38:51;;;;;;;1.40;1.30;;;15.90;54.20;;;;;;222805;1269;25334;-47
2023/01/12 20:43:59;;;;;;;1.50;1.40;;;16.00;54.30;;;;;;222431;1269;22626;-46
2023/01/12 20:49:13;;;;;;;2.00;1.60;;;15.90;54.50;;;;;;222464;1267;24330;-47
2023/01/12 20:54:18;;;;;;;1.70;1.60;;;15.90;54.30;;;;;;222573;1269;24208;-48
2023/01/12 20:59:23;;;;;;;1.70;1.60;;;15.90;54.30;;;;;;222927;1268;24396;-47
2023/01/12 21:04:29;;;;;;;1.50;1.40;;;16.00;54.30;;;;;;222765;1269;22534;-46
2023/01/12 21:09:34;;;;;;;1.90;1.50;;;16.00;53.90;;;;;;222771;1269;22517;-46
2023/01/12 21:14:38;;;;;;;1.50;1.40;;;15.90;54.30;;;;;;222449;1264;22549;-48
2023/01/12 21:19:45;;;;;;;1.60;1.50;;;15.90;54.30;;;;;;222747;1258;24628;-50
2023/01/12 21:24:49;;;;;;;1.70;1.50;;;15.90;54.40;;;;;;222374;1269;22534;-49
2023/01/12 21:29:55;;;;;;;2.40;1.50;;;15.90;54.40;;;;;;222608;1264;22546;-47
2023/01/12 21:34:59;;;;;;;2.00;1.40;;;15.80;54.50;;;;;;222522;1269;22591;-47
2023/01/12 21:40:15;;;;;;;1.40;1.30;;;15.80;54.50;;;;;;222626;1267;22531;-48
2023/01/12 21:45:22;;;;;;;1.80;1.70;;;15.90;54.50;;;;;;222733;1269;24895;-48
2023/01/12 21:50:26;;;;;;;1.50;1.40;;;15.90;54.50;;;;;;222427;1269;23116;-47
2023/01/12 21:55:34;;;;;;;1.60;1.50;;;15.80;54.50;;;;;;222782;1269;25345;-47
2023/01/12 22:00:39;;;;;;;1.20;1.10;;;15.90;54.40;;;;;;222770;1264;25252;-46
2023/01/12 22:05:48;;;;;;;1.30;1.20;;;15.90;54.80;;;;;;222419;1269;22499;-46
2023/01/12 22:10:52;;;;;;;2.10;1.60;;;15.90;54.60;;;;;;221933;1253;22523;-50
2023/01/12 22:16:04;;;;;;;1.50;1.40;;;15.80;55.10;;;;;;222008;1271;22535;-49
2023/01/12 22:21:09;;;;;;;1.20;1.10;;;15.90;54.40;;;;;;222250;1266;22530;-50
2023/01/12 22:26:14;;;;;;;1.50;1.20;;;15.90;54.80;;;;;;222181;1270;22553;-50
2023/01/12 22:31:21;;;;;;;1.50;1.40;;;15.80;54.60;;;;;;222203;1259;24208;-49
2023/01/12 22:36:25;;;;;;;1.40;1.30;;;15.80;54.80;;;;;;222182;1270;22611;-48
2023/01/12 22:41:30;;;;;;;1.60;1.30;;;15.80;54.50;;;;;;222211;1270;22532;-50
2023/01/12 22:46:35;;;;;;;1.50;1.30;;;15.80;54.60;;;;;;221976;1269;22591;-50
2023/01/12 22:51:40;;;;;;;2.00;1.80;;;15.80;54.60;;;;;;222075;1271;23954;-48
2023/01/12 22:56:44;;;;;;;1.80;1.40;;;15.90;54.50;;;;;;222089;1271;22534;-49
2023/01/12 23:01:49;;;;;;;1.40;1.20;;;15.90;54.80;;;;;;222103;1272;24214;-49
2023/01/12 23:06:53;;;;;;;1.40;1.30;;;15.90;54.20;;;;;;221953;1271;22649;-49
2023/01/12 23:11:57;;;;;;;2.00;1.40;;;15.90;54.50;;;;;;221772;1249;24419;-51
2023/01/12 23:17:02;;;;;;;1.30;1.20;;;15.90;54.30;;;;;;221752;1257;24245;-49
2023/01/12 23:22:06;;;;;;;1.40;1.00;;;15.80;54.40;;;;;;221639;1266;23888;-47
2023/01/12 23:27:10;;;;;;;1.50;1.30;;;15.80;54.40;;;;;;221696;1270;22542;-50
2023/01/12 23:32:30;;;;;;;1.40;1.30;;;15.80;54.40;;;;;;221745;1271;23066;-48
2023/01/12 23:38:14;;;;;;;1.10;1.00;;;15.80;54.40;;;;;;221615;1249;24209;-50
2023/01/12 23:43:19;;;;;;;1.40;1.30;;;15.80;54.40;;;;;;221661;1272;25485;-49
2023/01/12 23:48:24;;;;;;;1.10;1.00;;;15.80;54.50;;;;;;221816;1264;24215;-47
2023/01/12 23:53:30;;;;;;;1.20;1.10;;;15.80;54.50;;;;;;221584;1270;25468;-49
2023/01/12 23:58:34;;;;;;;1.40;1.30;;;15.80;54.50;;;;;;221710;1272;22537;-48
